AirNav   Pilot Hours Calculator
 
 1108 users online  

2AR0 Bully Henry Airport
Lonoke, Arkansas, USA

GOING TO LONOKE?


FAA INFORMATION EFFECTIVE 22 APRIL 2021

Location

FAA Identifier: 2AR0
Lat/Long: 34-52-05.2200N 091-58-27.3100W
34-52.087000N 091-58.455167W
34.8681167,-91.9742528
(estimated)
Elevation: 245 ft. / 75 m (estimated)
Variation: 03E (1995)
From city: 2 miles N of LONOKE, AR
Time zone: UTC -5 (UTC -6 during Standard Time)
Zip code: 72086

Airport Operations

Airport use: Private use. Permission required prior to landing
Activation date: 10/1996
Control tower: no
ARTCC: MEMPHIS CENTER
FSS: JONESBORO FLIGHT SERVICE STATION
Attendance: UNATNDD
Segmented circle: no

Airport Communications

WX AWOS-2 at 4M3 (13 nm E): 119.275 (870-552-1445)
WX AWOS-3PT at ORK (14 nm W): 123.775 (501-906-6529)
WX ASOS at LIT (15 nm SW): PHONE 501-376-0247

Nearby radio navigation aids

VOR radial/distance  VOR name  Freq  Var
LITr037/15.3LITTLE ROCK VORTAC113.9005E
PBFr352/37.4PINE BLUFF VOR/DME116.0004E

Airport Services

Runway Information

Runway 7/25

Dimensions: 2505 x 150 ft. / 764 x 46 m
Surface: turf
RUNWAY 7  RUNWAY 25
Traffic pattern: leftleft

Airport Ownership and Management from official FAA records

Ownership: Privately-owned
Owner: WARREN HENRY
160 SKYWAY
LONOKE, AR 72086
Phone 501-676-5258
Manager: WARREN HENRY
160 SKYWAY
LONOKE, AR 72086
Phone 501-676-5258

Airport Operational Statistics

Aircraft based on the field: 10
Single engine airplanes: 6
Multi engine airplanes: 2
Ultralights: 2
    

Additional Remarks

FOR CD CTC LITTLE ROCK APCH 501-379-2908 OR LITTLE ROCK ATCT 501-379-2911.

Instrument Procedures

There are no published instrument procedures at 2AR0.

Some nearby airports with instrument procedures:

KLRF - Little Rock Air Force Base (9 nm W)
4M3 - Carlisle Municipal Airport (13 nm E)
KORK - North Little Rock Municipal Airport (14 nm W)
KLIT - Bill and Hillary Clinton National Airport/Adams Field (15 nm SW)
KSRC - Searcy Municipal Airport (24 nm NE)
 
Loc | Ops | Rwys | IFR | FBO | Links
Com | Nav | Svcs | Stats | Notes
Area around 2AR0 (Bully Henry Airport)
 
Road maps at: MapQuest Bing Google
 
Aerial photo
No photo
 
Sectional chart

 
Airport distance calculator
Flying to Bully Henry Airport? Find the distance to fly.

From to 2AR0

Sunrise and sunset
Times for 15-May-2021
 Local
(UTC-5)
 Zulu
(UTC)
Morning civil twilight05:3810:38
Sunrise06:0611:06
Sunset20:0301:03
Evening civil twilight20:3101:31

Current date and time
Zulu (UTC)  15-May-2021 21:17:16
Local (UTC-5)  15-May-2021 16:17:16
 
METAR
KLRF 
9nm W 
152055Z 19005KT 7SM BKN040 BKN200 27/14 A3010 RMK SLPNO WND DATA ESTMD ALSTG ESTMD
KORK 
14nm W 
152050Z AUTO VRB06G14KT 10SM SCT055 25/12 A3010 RMK AO2
KLIT 
15nm SW 
152053Z 18007KT 140V200 10SM BKN060 BKN250 27/13 A3010 RMK AO2 SLP194 T02670133 56020
TAF
KLRF 
9nm W 
151505Z 1515/1621 14009KT 9999 SCT110 BKN180 QNH3019INS BECMG 1516/1517 19012KT 9999 SCT055 BKN110 BKN180 QNH3005INS BECMG 1522/1523 16009KT 9999 BKN050 BKN160 QNH3006INS BECMG 1602/1603 VRB03KT 9999 BKN045 BKN150 QNH3007INS BECMG 1614/1615 18010G15KT 9999 BKN035 BKN130 QNH3002INS TX28/1520Z TN16/1611Z
KLIT 
15nm SW 
151725Z 1518/1618 18008KT P6SM SCT050 SCT120 BKN250 FM160100 VRB04KT P6SM SCT120 BKN250 FM161500 20008KT P6SM BKN250
NOTAMs
Click for the latest NOTAMs
NOTAMs are issued by the DoD/FAA and will open in a separate window not controlled by AirNav.

 

 
 

Would you like to see your business listed on this page?

 If your business provides an interesting product or service to pilots, flight crews, aircraft, or users of the Bully Henry Airport, you should consider listing it here.  To start the listing process, click on the button below
 
Add a business
 

Other Pages about Bully Henry Airport

Update a link
 
Copyright © AirNav, LLC. All rights reserved. Privacy Policy  Contact